Time;durP1;ratioP1;P1;durP2;ratioP2;P2;SDS_P1;SDS_P2;PMS_P1;PMS_P2;Temp;Humidity;BMP_temperature;BMP_pressure;BME280_temperature;BME280_humidity;BME280_pressure;Samples;Min_cycle;Max_cycle;Signal;HPM_P1;HPM_P2
2023/01/30 00:00:21;;;;;;;8.65;4.25;;;;;;;4.56;53.62;94881.56;4990727;28;20031;-83
2023/01/30 00:02:46;;;;;;;8.10;3.75;;;;;;;4.50;53.60;94874.66;4995940;28;20431;-83
2023/01/30 00:05:12;;;;;;;7.97;3.70;;;;;;;4.60;53.70;94877.56;4997162;28;20026;-83
2023/01/30 00:07:37;;;;;;;10.40;4.40;;;;;;;4.44;54.91;94875.50;4995833;28;20027;-83
2023/01/30 00:10:03;;;;;;;10.60;4.75;;;;;;;4.36;54.63;94882.59;4979899;28;20034;-83
2023/01/30 00:12:29;;;;;;;11.50;4.57;;;;;;;4.42;54.72;94874.94;4997057;28;20027;-83
2023/01/30 00:14:54;;;;;;;12.02;4.82;;;;;;;4.32;55.14;94865.88;4997018;28;20077;-83
2023/01/30 00:17:20;;;;;;;7.95;3.88;;;;;;;4.31;54.77;94872.06;4995710;28;20036;-83
2023/01/30 00:19:45;;;;;;;10.32;4.13;;;;;;;4.37;54.58;94866.00;4996994;28;20154;-83
2023/01/30 00:22:10;;;;;;;9.18;4.38;;;;;;;4.23;54.75;94857.56;4980128;28;20085;-82
2023/01/30 00:24:36;;;;;;;6.45;3.15;;;;;;;4.18;55.08;94854.03;4995754;28;20037;-82
2023/01/30 00:27:01;;;;;;;7.97;3.83;;;;;;;4.17;54.78;94870.59;4996900;28;20030;-82
2023/01/30 00:29:27;;;;;;;6.15;2.90;;;;;;;4.03;54.82;94854.38;4979786;28;20347;-82
2023/01/30 00:31:52;;;;;;;10.10;3.38;;;;;;;4.15;55.53;94857.03;4995638;28;20057;-83
2023/01/30 00:34:18;;;;;;;6.93;2.80;;;;;;;4.16;55.04;94853.44;4995929;28;20038;-82
2023/01/30 00:36:43;;;;;;;6.40;2.65;;;;;;;3.98;54.81;94855.00;4995502;28;20030;-82
2023/01/30 00:39:08;;;;;;;7.18;2.83;;;;;;;4.02;55.33;94848.41;4995987;28;20034;-82
2023/01/30 00:47:05;;;;;;;6.45;2.63;;;;;;;4.23;54.92;94841.22;4999372;28;20038;-82
2023/01/30 00:49:31;;;;;;;6.80;2.67;;;;;;;4.15;54.99;94844.88;4983661;28;20034;-82
2023/01/30 00:51:57;;;;;;;6.63;3.28;;;;;;;4.16;55.48;94835.28;4983130;28;20129;-82
2023/01/30 00:54:23;;;;;;;7.70;3.47;;;;;;;4.08;55.60;94838.94;4999154;28;20456;-82
2023/01/30 00:56:48;;;;;;;7.82;3.63;;;;;;;4.01;55.03;94839.00;4998968;28;20034;-82
2023/01/30 00:59:13;;;;;;;7.57;3.50;;;;;;;4.02;54.95;94837.22;4999161;28;20034;-83
2023/01/30 01:01:39;;;;;;;7.00;3.42;;;;;;;3.79;55.82;94833.41;4983011;28;20436;-82
2023/01/30 01:04:06;;;;;;;8.95;3.55;;;;;;;4.23;55.31;94830.84;4982930;28;20095;-82
2023/01/30 01:06:31;;;;;;;7.88;3.05;;;;;;;4.27;55.00;94831.19;4998893;28;20030;-82
2023/01/30 01:08:57;;;;;;;8.07;3.22;;;;;;;4.20;54.74;94831.28;4999109;28;20324;-82
2023/01/30 01:11:25;;;;;;;11.90;2.28;;;;;;;4.23;54.63;94829.03;4998911;28;20038;-82
2023/01/30 01:13:55;;;;;;;5.60;2.45;;;;;;;4.88;53.43;94826.09;4998806;28;20034;-82
2023/01/30 01:16:22;;;;;;;3.75;1.80;;;;;;;4.32;55.33;94834.75;4998615;28;20037;-83
2023/01/30 01:18:48;;;;;;;4.25;2.08;;;;;;;4.37;55.40;94827.09;4998733;28;20360;-83
2023/01/30 01:21:13;;;;;;;4.22;2.22;;;;;;;4.37;54.80;94824.50;4999123;28;20037;-82
2023/01/30 01:23:39;;;;;;;4.18;2.15;;;;;;;4.30;54.44;94818.56;4998682;28;20030;-83
2023/01/30 01:26:04;;;;;;;4.22;1.92;;;;;;;4.13;54.69;94825.34;4999496;28;20034;-82
2023/01/30 01:28:30;;;;;;;4.00;1.75;;;;;;;4.00;55.50;94823.69;4999691;28;20057;-82
2023/01/30 01:30:56;;;;;;;5.07;2.50;;;;;;;4.03;55.33;94812.88;4998526;28;20057;-82
2023/01/30 01:33:25;;;;;;;3.72;2.08;;;;;;;4.19;55.12;94816.72;4982651;28;20475;-82
2023/01/30 01:35:54;;;;;;;4.90;1.77;;;;;;;4.47;54.89;94805.81;4998358;28;20030;-82
2023/01/30 01:38:20;;;;;;;3.90;1.80;;;;;;;4.16;55.52;94812.75;4982435;28;20038;-82
2023/01/30 01:41:00;;;;;;;5.78;1.80;;;;;;;4.08;54.80;94793.06;4982321;28;20034;-82
2023/01/30 01:43:34;;;;;;;3.55;1.70;;;;;;;4.03;56.31;94803.31;4998444;28;20491;-82
2023/01/30 01:46:16;;;;;;;3.95;1.65;;;;;;;4.26;55.54;94796.69;4998204;28;20034;-82
2023/01/30 01:48:48;;;;;;;3.28;1.70;;;;;;;4.36;55.46;94796.97;4982279;28;20129;-82
2023/01/30 01:51:21;;;;;;;3.10;1.80;;;;;;;4.53;54.61;94793.78;4982177;28;20034;-82
2023/01/30 01:53:55;;;;;;;5.72;1.50;;;;;;;4.83;53.68;94784.44;4981896;28;20332;-82
2023/01/30 01:56:20;;;;;;;4.60;1.88;;;;;;;4.86;53.38;94787.38;4997941;28;20360;-82
2023/01/30 01:59:09;;;;;;;2.65;1.58;;;;;;;4.98;53.39;94786.63;4999183;28;20034;-82
2023/01/30 02:01:35;;;;;;;5.15;1.40;;;;;;;4.74;53.25;94779.53;4981818;28;20451;-82
2023/01/30 02:04:03;;;;;;;3.38;1.40;;;;;;;4.92;53.29;94768.31;4981957;28;20026;-82
2023/01/30 02:06:29;;;;;;;5.38;1.60;;;;;;;4.77;53.70;94775.72;4981526;28;20132;-82
2023/01/30 02:09:01;;;;;;;4.13;1.13;;;;;;;4.81;53.28;94776.84;4998067;28;20026;-82
2023/01/30 02:11:42;;;;;;;3.00;1.15;;;;;;;4.71;53.63;94771.41;4997841;28;20121;-82
2023/01/30 02:14:10;;;;;;;3.00;1.50;;;;;;;4.46;54.18;94765.31;4997711;28;20062;-82
2023/01/30 02:16:36;;;;;;;2.50;1.25;;;;;;;4.44;54.40;94761.34;4997552;28;20026;-82
2023/01/30 02:19:02;;;;;;;3.08;1.45;;;;;;;4.00;55.43;94766.63;4997640;28;20081;-82
2023/01/30 02:22:04;;;;;;;3.42;1.52;;;;;;;4.24;54.42;94752.81;4999064;28;20053;-82
2023/01/30 02:24:48;;;;;;;3.10;1.27;;;;;;;4.43;53.71;94750.19;4998746;28;20033;-82
2023/01/30 02:27:13;;;;;;;3.03;1.33;;;;;;;4.38;54.89;94740.47;4998475;28;20045;-82
2023/01/30 02:30:07;;;;;;;4.10;1.70;;;;;;;4.72;53.79;94744.44;4998588;28;20030;-82
2023/01/30 02:32:51;;;;;;;6.68;1.40;;;;;;;4.23;53.83;94740.06;4981289;28;20038;-82
2023/01/30 02:35:17;;;;;;;1.98;1.20;;;;;;;4.22;54.08;94743.66;4998471;28;20447;-82
2023/01/30 02:38:03;;;;;;;3.38;1.83;;;;;;;4.48;53.85;94736.56;4997027;28;20030;-82
2023/01/30 02:40:40;;;;;;;2.90;1.60;;;;;;;4.54;53.98;94738.28;4997274;28;20026;-82
2023/01/30 02:43:27;;;;;;;3.28;1.65;;;;;;;4.50;53.45;94731.94;4981127;28;20026;-82
2023/01/30 02:46:04;;;;;;;3.58;1.25;;;;;;;4.11;55.07;94729.63;4981081;28;20041;-82
2023/01/30 02:48:36;;;;;;;2.50;1.42;;;;;;;4.25;54.36;94730.25;4997064;28;20023;-82
2023/01/30 02:51:05;;;;;;;2.22;1.20;;;;;;;4.33;54.48;94729.16;4981144;28;20089;-82
2023/01/30 02:53:32;;;;;;;1.80;1.17;;;;;;;4.51;53.83;94718.72;4996934;28;20436;-82
2023/01/30 02:55:58;;;;;;;2.90;1.10;;;;;;;4.33;53.43;94724.78;4996838;28;20061;-82
2023/01/30 02:58:25;;;;;;;1.80;1.10;;;;;;;4.67;53.79;94719.94;4996861;28;20466;-82
2023/01/30 03:01:15;;;;;;;2.53;1.35;;;;;;;4.60;53.42;94719.25;4996735;28;20041;-82
2023/01/30 03:03:57;;;;;;;4.00;1.20;;;;;;;4.80;52.92;94710.38;4997365;28;20028;-82
2023/01/30 03:06:33;;;;;;;2.30;1.20;;;;;;;4.71;53.18;94706.50;4996903;28;20030;-82
2023/01/30 03:09:17;;;;;;;2.70;1.30;;;;;;;4.59;53.37;94699.50;4997861;28;20026;-83
2023/01/30 03:11:52;;;;;;;2.65;1.38;;;;;;;4.15;53.78;94697.06;4997669;28;20080;-82
2023/01/30 03:14:44;;;;;;;3.10;1.20;;;;;;;4.39;53.97;94697.16;4980680;28;20039;-82
2023/01/30 03:17:10;;;;;;;2.78;1.23;;;;;;;4.15;54.60;94696.25;4992771;28;20125;-82
2023/01/30 03:19:36;;;;;;;3.67;1.52;;;;;;;3.94;54.24;94695.69;4996478;28;20037;-83
2023/01/30 03:22:02;;;;;;;4.63;1.30;;;;;;;3.81;54.93;94694.84;4980514;28;20026;-82
2023/01/30 03:24:27;;;;;;;1.90;1.10;;;;;;;3.76;55.55;94688.72;4996433;28;20050;-82
2023/01/30 03:27:09;;;;;;;3.03;1.30;;;;;;;4.04;55.14;94692.59;4996344;28;20034;-83
2023/01/30 03:29:35;;;;;;;3.05;1.40;;;;;;;3.85;55.20;94699.59;4996359;28;20033;-83
2023/01/30 03:32:00;;;;;;;2.38;1.20;;;;;;;3.87;54.80;94688.00;4996118;28;20038;-83
2023/01/30 03:34:26;;;;;;;2.15;1.15;;;;;;;3.88;55.23;94683.63;4997166;28;20034;-83
2023/01/30 03:36:51;;;;;;;1.77;1.05;;;;;;;3.72;55.21;94683.16;4979981;28;20041;-83
2023/01/30 03:39:17;;;;;;;4.22;1.30;;;;;;;3.69;54.96;94683.59;4980291;28;20336;-83
2023/01/30 03:41:43;;;;;;;2.58;1.27;;;;;;;3.63;54.98;94679.28;4996919;28;20440;-83
2023/01/30 03:44:08;;;;;;;2.67;1.10;;;;;;;3.60;55.45;94690.88;4996191;28;20035;-83
2023/01/30 03:46:34;;;;;;;3.17;1.52;;;;;;;3.79;54.76;94693.47;4997010;28;20034;-83
2023/01/30 03:48:59;;;;;;;1.92;1.10;;;;;;;3.76;55.02;94696.47;4980199;28;20132;-83
2023/01/30 03:51:25;;;;;;;1.67;1.00;;;;;;;3.67;55.22;94683.81;4980416;28;20049;-83
2023/01/30 03:53:50;;;;;;;2.38;1.35;;;;;;;3.54;55.90;94695.09;4997434;28;20460;-83
2023/01/30 03:56:15;;;;;;;1.77;0.80;;;;;;;3.57;55.50;94695.69;4996488;28;20064;-83
2023/01/30 03:58:41;;;;;;;2.83;1.33;;;;;;;3.57;55.67;94688.72;4995946;28;20030;-83
2023/01/30 04:01:06;;;;;;;3.15;1.33;;;;;;;3.64;55.78;94692.00;4995890;28;20036;-83
2023/01/30 04:03:33;;;;;;;2.00;1.40;;;;;;;3.95;55.35;94687.72;4979979;28;20026;-83
2023/01/30 04:05:58;;;;;;;3.25;1.42;;;;;;;3.84;55.23;94695.41;4995992;28;20477;-83
2023/01/30 04:08:24;;;;;;;3.03;1.00;;;;;;;3.50;55.36;94683.59;4995907;28;20034;-83
2023/01/30 04:10:49;;;;;;;2.35;1.10;;;;;;;3.81;54.92;94688.88;4995948;28;20062;-82
2023/01/30 04:13:15;;;;;;;2.03;1.10;;;;;;;3.49;55.65;94692.38;4995857;28;20387;-83
2023/01/30 04:15:43;;;;;;;1.83;1.20;;;;;;;3.81;54.84;94687.06;4981911;28;20145;-83
2023/01/30 04:18:08;;;;;;;3.22;1.20;;;;;;;3.74;54.78;94686.34;4999867;28;20400;-82
2023/01/30 04:20:33;;;;;;;2.22;1.00;;;;;;;3.76;54.77;94692.09;5000908;28;20069;-83
2023/01/30 04:22:59;;;;;;;1.67;1.05;;;;;;;3.66;54.92;94689.22;4999846;28;20026;-83
2023/01/30 04:25:24;;;;;;;2.50;1.40;;;;;;;3.56;55.41;94686.31;4999723;28;20022;-83
2023/01/30 04:27:50;;;;;;;2.92;1.17;;;;;;;3.48;56.04;94689.97;4999783;28;20100;-83
2023/01/30 04:30:15;;;;;;;2.20;1.10;;;;;;;3.52;55.47;94681.56;5000839;28;20022;-83
2023/01/30 04:32:41;;;;;;;1.83;1.10;;;;;;;3.57;55.46;94685.31;4999722;28;20037;-82
2023/01/30 04:35:07;;;;;;;1.77;0.98;;;;;;;3.59;55.17;94680.72;4999500;28;20022;-83
2023/01/30 04:37:32;;;;;;;1.75;0.90;;;;;;;3.63;55.45;94674.09;4999384;28;20030;-83
2023/01/30 04:39:57;;;;;;;2.50;1.20;;;;;;;3.62;54.41;94669.94;4983373;28;20344;-82
2023/01/30 04:42:23;;;;;;;2.60;1.17;;;;;;;3.59;54.19;94662.59;4999455;28;20025;-83
2023/01/30 04:44:52;;;;;;;2.22;0.77;;;;;;;3.77;54.37;94661.78;4999304;28;20030;-83
2023/01/30 04:47:18;;;;;;;2.47;1.25;;;;;;;3.44;55.76;94661.13;4983158;28;20041;-83
2023/01/30 04:49:43;;;;;;;1.38;1.10;;;;;;;3.44;55.22;94655.94;4999252;28;20113;-83
2023/01/30 04:52:09;;;;;;;2.60;0.93;;;;;;;3.65;54.97;94646.19;4982815;28;20085;-83
2023/01/30 04:54:34;;;;;;;1.38;0.77;;;;;;;3.66;54.60;94647.75;5000390;28;20030;-83
2023/01/30 04:57:00;;;;;;;9.07;1.00;;;;;;;3.62;54.60;94646.63;4999060;28;20105;-83
2023/01/30 04:59:25;;;;;;;2.35;1.10;;;;;;;3.36;56.16;94649.25;4983135;28;20033;-83
2023/01/30 05:01:51;;;;;;;2.38;1.00;;;;;;;3.76;54.74;94642.06;4999014;28;20030;-82
2023/01/30 05:04:22;;;;;;;4.53;1.30;;;;;;;3.93;54.40;94644.88;4999056;28;20030;-83
2023/01/30 05:06:51;;;;;;;3.75;1.08;;;;;;;3.99;54.63;94643.97;4979871;28;20519;-82
2023/01/30 05:09:16;;;;;;;4.13;1.27;;;;;;;3.75;54.28;94630.91;4963557;28;20125;-82
2023/01/30 05:11:42;;;;;;;2.08;1.20;;;;;;;3.83;54.12;94640.19;4979938;28;20069;-82
2023/01/30 05:14:07;;;;;;;2.28;1.27;;;;;;;3.82;54.55;94631.63;4963357;28;20030;-83
2023/01/30 05:16:33;;;;;;;2.90;1.40;;;;;;;3.72;54.41;94620.19;4963328;28;20101;-83
2023/01/30 05:18:58;;;;;;;3.90;1.48;;;;;;;3.38;54.03;94615.38;4979331;28;20037;-83
2023/01/30 05:21:29;;;;;;;2.75;1.42;;;;;;;3.59;54.84;94611.56;4963384;28;20027;-83
2023/01/30 05:23:55;;;;;;;3.42;1.20;;;;;;;3.57;55.22;94610.19;4992514;28;20026;-83
2023/01/30 05:26:22;;;;;;;2.40;1.30;;;;;;;3.52;53.90;94603.06;4982005;28;20033;-83
2023/01/30 05:28:52;;;;;;;2.20;1.27;;;;;;;3.60;54.58;94602.78;4998429;28;20030;-83
2023/01/30 05:31:18;;;;;;;2.78;1.35;;;;;;;3.47;55.48;94597.72;4982634;28;20038;-83
2023/01/30 05:33:47;;;;;;;2.17;1.10;;;;;;;3.74;55.06;94585.28;4999597;28;20427;-83
2023/01/30 05:36:15;;;;;;;2.88;1.15;;;;;;;3.82;54.78;94589.38;4982364;28;20038;-82
2023/01/30 05:38:44;;;;;;;2.65;0.82;;;;;;;3.79;55.01;94577.63;4982385;28;20069;-83
2023/01/30 05:41:14;;;;;;;4.57;1.20;;;;;;;3.90;54.53;94580.50;4982347;28;20439;-83
2023/01/30 05:43:39;;;;;;;2.50;1.40;;;;;;;3.44;55.13;94580.81;4982288;28;20036;-82
2023/01/30 05:46:05;;;;;;;4.25;1.65;;;;;;;3.68;55.32;94575.78;4998140;28;20440;-82
2023/01/30 05:48:32;;;;;;;2.92;1.52;;;;;;;4.05;54.83;94573.09;4982222;28;20030;-83
2023/01/30 05:50:58;;;;;;;10.52;5.13;;;;;;;4.00;54.39;94572.19;4998208;28;20026;-83
2023/01/30 05:53:27;;;;;;;7.88;2.80;;;;;;;3.88;54.62;94570.34;4998062;28;20030;-84
2023/01/30 05:56:00;;;;;;;4.50;2.05;;;;;;;4.01;53.92;94566.75;4981841;28;20053;-82
2023/01/30 05:58:27;;;;;;;1.98;1.00;;;;;;;3.85;54.06;94573.38;4997898;28;20619;-82
2023/01/30 06:00:53;;;;;;;18.77;7.57;;;;;;;3.89;54.23;94563.38;4981772;28;20045;-82
2023/01/30 06:03:19;;;;;;;36.78;11.90;;;;;;;3.97;53.98;94568.22;4981928;28;20086;-82
2023/01/30 06:05:44;;;;;;;27.40;10.60;;;;;;;3.96;53.62;94564.06;4981728;28;20352;-82
2023/01/30 06:08:10;;;;;;;23.10;8.52;;;;;;;3.86;53.46;94569.78;4993020;28;20026;-82
2023/01/30 06:10:35;;;;;;;37.33;13.95;;;;;;;4.01;53.48;94574.53;4978548;28;20026;-82
2023/01/30 06:13:01;;;;;;;27.35;10.52;;;;;;;4.00;52.96;94570.38;4994492;28;20070;-82
2023/01/30 06:15:27;;;;;;;2.28;1.20;;;;;;;4.01;52.87;94571.19;4962217;28;20423;-82
2023/01/30 06:17:52;;;;;;;2.13;0.95;;;;;;;4.03;53.09;94569.16;4977916;28;20093;-82
2023/01/30 06:20:18;;;;;;;1.58;1.00;;;;;;;4.05;52.91;94580.88;4978684;28;20066;-82
2023/01/30 06:22:43;;;;;;;3.60;1.27;;;;;;;4.33;51.68;94583.88;4978301;28;20026;-82
2023/01/30 06:25:09;;;;;;;5.68;1.48;;;;;;;4.49;50.89;94592.84;5000456;28;20031;-82
2023/01/30 06:27:34;;;;;;;1.67;1.00;;;;;;;4.67;49.56;94602.34;4997329;28;20503;-82
2023/01/30 06:30:00;;;;;;;2.15;0.90;;;;;;;5.02;49.06;94611.16;4997383;28;20030;-82
2023/01/30 06:32:25;;;;;;;2.45;1.15;;;;;;;5.01;49.03;94606.97;4997169;28;20121;-82
2023/01/30 06:34:51;;;;;;;5.20;2.05;;;;;;;5.22;48.68;94619.41;4997592;28;20069;-82
2023/01/30 06:37:16;;;;;;;2.03;1.08;;;;;;;4.69;48.39;94623.69;4980967;28;20152;-82
2023/01/30 06:39:42;;;;;;;2.70;1.10;;;;;;;5.35;47.77;94615.78;4996357;28;20080;-82
2023/01/30 06:42:07;;;;;;;3.75;1.75;;;;;;;5.34;48.34;94616.81;4997231;28;20030;-82
2023/01/30 06:44:34;;;;;;;3.63;1.45;;;;;;;5.19;48.99;94611.28;4997050;28;20041;-82
2023/01/30 06:46:59;;;;;;;3.25;1.50;;;;;;;5.03;49.26;94613.53;4997494;28;20029;-82
2023/01/30 06:49:25;;;;;;;1.75;0.90;;;;;;;4.86;49.31;94623.81;4996933;28;20030;-82
2023/01/30 06:51:50;;;;;;;2.65;1.13;;;;;;;5.09;48.54;94635.22;4998014;28;20347;-82
2023/01/30 06:54:15;;;;;;;2.47;1.13;;;;;;;5.02;48.55;94629.34;4993907;28;20384;-82
2023/01/30 06:56:41;;;;;;;2.92;1.75;;;;;;;4.90;49.06;94626.75;4977175;28;20027;-82
2023/01/30 06:59:07;;;;;;;3.28;1.30;;;;;;;4.80;49.70;94635.88;4966122;28;20347;-82
2023/01/30 07:01:32;;;;;;;8.48;2.70;;;;;;;4.73;50.63;94650.78;4961600;28;20126;-82
2023/01/30 07:03:58;;;;;;;3.10;1.20;;;;;;;5.00;50.79;94663.34;4978776;28;20026;-82
2023/01/30 07:06:26;;;;;;;4.20;1.80;;;;;;;4.58;51.60;94666.75;4986228;28;20026;-82
2023/01/30 07:08:51;;;;;;;3.80;1.33;;;;;;;4.06;53.64;94675.00;4977290;28;20035;-82
2023/01/30 07:11:17;;;;;;;7.53;1.30;;;;;;;4.50;53.35;94687.84;4977139;28;20499;-82
2023/01/30 07:13:43;;;;;;;2.15;0.82;;;;;;;4.76;52.14;94704.84;4977192;28;20035;-83
2023/01/30 07:16:08;;;;;;;1.85;1.10;;;;;;;4.79;51.73;94706.97;4977091;28;20030;-83
2023/01/30 07:18:34;;;;;;;3.17;1.27;;;;;;;4.17;52.99;94710.59;4977158;28;20038;-83
2023/01/30 07:20:59;;;;;;;1.48;0.90;;;;;;;4.84;52.61;94708.13;4978269;28;20340;-83
2023/01/30 07:23:24;;;;;;;3.33;1.70;;;;;;;4.81;51.15;94706.75;4960965;28;20027;-83
2023/01/30 07:25:50;;;;;;;8.55;3.67;;;;;;;5.18;50.75;94700.63;4976896;28;20318;-83
2023/01/30 07:28:15;;;;;;;4.35;1.90;;;;;;;5.32;51.33;94706.41;4976969;28;20038;-82
2023/01/30 07:30:41;;;;;;;14.98;6.20;;;;;;;5.34;50.67;94699.19;4976899;28;20049;-83
2023/01/30 07:33:06;;;;;;;8.70;3.00;;;;;;;5.13;52.31;94698.69;4968117;28;20347;-83
2023/01/30 07:35:33;;;;;;;6.68;2.92;;;;;;;5.51;51.83;94701.88;4997381;28;20394;-83
2023/01/30 07:37:59;;;;;;;8.70;3.13;;;;;;;5.35;51.96;94703.34;4997365;28;20161;-83
2023/01/30 07:40:25;;;;;;;4.90;2.22;;;;;;;5.64;51.81;94695.66;4996252;28;20076;-83
2023/01/30 07:43:05;;;;;;;4.63;2.13;;;;;;;6.10;50.93;94692.44;4980097;28;20026;-83
2023/01/30 07:45:36;;;;;;;2.58;1.42;;;;;;;6.27;48.89;94689.91;4996281;28;20022;-83
2023/01/30 07:48:01;;;;;;;4.35;1.73;;;;;;;6.29;49.14;94685.25;4996161;28;20026;-83
2023/01/30 07:50:27;;;;;;;4.20;2.00;;;;;;;6.26;49.79;94686.50;4995810;28;20038;-83
2023/01/30 07:52:52;;;;;;;4.50;2.10;;;;;;;6.34;49.69;94688.75;4997239;28;20065;-83
2023/01/30 07:55:18;;;;;;;6.30;3.03;;;;;;;6.44;49.80;94682.13;4996122;28;20034;-83
2023/01/30 07:57:43;;;;;;;5.72;3.33;;;;;;;6.56;49.98;94679.50;4995982;28;20026;-83
2023/01/30 08:00:09;;;;;;;4.93;2.80;;;;;;;6.68;50.19;94675.03;4996199;28;20040;-83
2023/01/30 08:02:35;;;;;;;5.15;2.83;;;;;;;6.75;50.12;94669.69;4995934;28;20036;-83
2023/01/30 08:05:01;;;;;;;6.18;3.17;;;;;;;6.55;50.60;94668.28;4979982;28;20037;-83
2023/01/30 08:07:26;;;;;;;9.18;5.03;;;;;;;6.81;50.08;94657.50;4996187;28;20033;-83
2023/01/30 08:09:52;;;;;;;3.45;2.45;;;;;;;6.81;49.71;94660.09;4996178;28;20030;-83
2023/01/30 08:12:17;;;;;;;5.65;3.85;;;;;;;6.89;49.52;94652.72;4995899;28;20033;-83
2023/01/30 08:14:42;;;;;;;8.63;5.40;;;;;;;6.95;49.21;94645.75;4997084;28;20037;-83
2023/01/30 08:17:08;;;;;;;5.82;3.20;;;;;;;7.04;49.31;94636.50;4995827;28;20030;-83
2023/01/30 08:19:33;;;;;;;3.97;1.90;;;;;;;7.10;48.71;94644.41;4979465;28;20355;-83
2023/01/30 08:21:59;;;;;;;3.80;1.58;;;;;;;7.01;49.06;94647.41;4995864;28;20027;-83
2023/01/30 08:24:24;;;;;;;2.72;1.38;;;;;;;7.09;49.33;94651.44;4995868;28;20023;-83
2023/01/30 08:26:50;;;;;;;5.53;2.10;;;;;;;7.40;47.82;94649.28;4995929;28;20036;-83
2023/01/30 08:29:16;;;;;;;5.65;1.73;;;;;;;7.57;47.58;94648.44;4996007;28;20054;-83
2023/01/30 08:31:41;;;;;;;3.35;1.58;;;;;;;7.42;46.48;94642.00;4979854;28;20030;-83
2023/01/30 08:34:07;;;;;;;3.45;1.40;;;;;;;7.80;46.86;94636.22;4979660;28;20042;-83
2023/01/30 08:36:32;;;;;;;5.45;1.80;;;;;;;7.95;46.90;94631.19;4995636;28;20034;-83
2023/01/30 08:38:57;;;;;;;3.83;2.53;;;;;;;8.02;47.76;94623.16;4995806;28;20034;-83
2023/01/30 08:41:23;;;;;;;6.72;4.03;;;;;;;8.15;47.78;94622.78;4995833;28;20056;-83
2023/01/30 08:43:48;;;;;;;5.57;3.20;;;;;;;8.21;47.83;94623.63;4979637;28;20030;-83
2023/01/30 08:46:16;;;;;;;5.07;2.47;;;;;;;8.18;47.86;94613.69;4996757;28;20036;-83
2023/01/30 08:48:43;;;;;;;4.55;2.35;;;;;;;8.34;47.46;94623.25;4996826;28;20080;-83
2023/01/30 08:51:09;;;;;;;6.25;3.33;;;;;;;8.28;46.71;94618.22;4995678;28;20145;-83
2023/01/30 08:53:34;;;;;;;16.00;7.90;;;;;;;8.52;46.57;94621.34;4979441;28;20074;-83
2023/01/30 08:56:00;;;;;;;15.10;6.18;;;;;;;8.72;47.07;94620.75;4979450;28;20428;-83
2023/01/30 08:58:25;;;;;;;10.13;5.47;;;;;;;8.93;47.45;94622.72;4979578;28;20113;-83
2023/01/30 09:00:51;;;;;;;9.35;5.25;;;;;;;9.09;47.62;94616.56;4979392;28;20034;-83
2023/01/30 09:03:17;;;;;;;4.88;2.00;;;;;;;9.02;46.79;94616.78;4998018;28;20073;-83
2023/01/30 09:05:42;;;;;;;3.80;1.80;;;;;;;9.56;46.82;94609.78;4998927;28;20143;-83
2023/01/30 09:08:08;;;;;;;3.60;1.77;;;;;;;9.89;47.33;94610.44;4999015;28;20117;-83
2023/01/30 09:10:34;;;;;;;6.00;1.60;;;;;;;10.19;47.50;94611.56;4998955;28;20351;-83
2023/01/30 09:12:59;;;;;;;5.82;2.33;;;;;;;9.87;46.25;94609.13;4998840;28;20042;-83
2023/01/30 09:15:25;;;;;;;3.88;2.00;;;;;;;10.17;46.04;94600.56;4998857;28;20080;-83
2023/01/30 09:17:51;;;;;;;4.03;1.92;;;;;;;10.05;45.97;94589.53;4999691;28;20070;-83
2023/01/30 09:20:19;;;;;;;8.55;1.83;;;;;;;10.68;45.19;94595.69;4999962;28;20355;-81
2023/01/30 09:22:44;;;;;;;4.60;1.98;;;;;;;10.91;44.71;94591.00;4983053;28;20026;-81
2023/01/30 09:25:10;;;;;;;3.45;2.00;;;;;;;10.32;46.55;94584.09;4982648;28;20037;-81
2023/01/30 09:27:35;;;;;;;4.13;2.40;;;;;;;10.51;46.07;94580.22;4998616;28;20511;-80
2023/01/30 09:30:02;;;;;;;4.38;2.10;;;;;;;10.97;45.28;94588.06;4998592;28;20080;-80
2023/01/30 09:32:27;;;;;;;14.75;2.22;;;;;;;11.07;45.20;94571.56;4998452;28;20030;-81
2023/01/30 09:34:52;;;;;;;5.10;1.90;;;;;;;10.93;45.54;94568.69;4998422;28;20045;-80
2023/01/30 09:37:18;;;;;;;4.22;1.92;;;;;;;11.07;45.66;94570.78;4998764;28;20029;-81
2023/01/30 09:39:43;;;;;;;6.70;2.38;;;;;;;10.67;46.59;94568.69;4998410;28;20126;-80
2023/01/30 09:42:31;;;;;;;4.45;1.80;;;;;;;11.44;45.88;94565.16;4998285;28;20041;-80
2023/01/30 09:45:02;;;;;;;6.40;3.00;;;;;;;11.48;45.37;94557.56;4999485;28;20076;-80
2023/01/30 09:47:37;;;;;;;9.90;4.25;;;;;;;11.53;45.07;94543.63;4999358;28;20109;-81
2023/01/30 09:50:40;;;;;;;13.32;5.35;;;;;;;12.06;45.43;94527.38;4982315;28;20041;-80
2023/01/30 09:53:20;;;;;;;16.65;7.03;;;;;;;11.60;46.07;94525.75;4999241;28;20030;-80
2023/01/30 09:55:46;;;;;;;13.65;5.25;;;;;;;12.64;43.19;94527.78;4998080;28;20145;-83
2023/01/30 09:58:22;;;;;;;10.50;4.22;;;;;;;13.47;41.49;94511.19;4998070;28;20042;-80
2023/01/30 10:00:50;;;;;;;9.10;3.80;;;;;;;13.32;41.49;94514.75;4981843;28;20419;-80
2023/01/30 10:03:19;;;;;;;11.23;4.45;;;;;;;13.85;40.56;94509.41;4997968;28;20019;-80
2023/01/30 10:05:58;;;;;;;10.38;4.55;;;;;;;13.37;41.29;94512.84;4997846;28;20026;-81
2023/01/30 10:08:37;;;;;;;9.40;4.25;;;;;;;12.77;40.30;94518.47;4997825;28;20125;-83
2023/01/30 10:11:21;;;;;;;8.27;4.20;;;;;;;13.15;40.95;94513.38;4998075;28;20030;-80
2023/01/30 10:13:47;;;;;;;9.60;4.45;;;;;;;13.47;40.36;94503.28;4998687;28;20038;-80
2023/01/30 10:16:44;;;;;;;9.18;3.75;;;;;;;13.53;38.21;94481.13;4997568;28;20059;-81
2023/01/30 10:19:31;;;;;;;12.20;3.13;;;;;;;13.97;38.20;94476.56;4998018;28;20018;-80
2023/01/30 10:22:18;;;;;;;5.10;2.65;;;;;;;13.29;38.76;94476.63;4998157;28;20034;-83
2023/01/30 10:24:50;;;;;;;4.05;1.85;;;;;;;13.70;36.77;94470.09;4997634;28;20436;-80
2023/01/30 10:27:17;;;;;;;6.03;2.63;;;;;;;13.20;36.86;94481.72;4998596;28;20026;-83
2023/01/30 10:29:47;;;;;;;4.47;2.20;;;;;;;13.46;35.89;94468.31;4981417;28;20034;-80
2023/01/30 10:32:28;;;;;;;6.22;2.47;;;;;;;13.52;36.77;94466.41;4998656;28;20113;-80
2023/01/30 10:34:57;;;;;;;9.95;3.13;;;;;;;13.53;39.36;94460.06;4997408;28;20030;-81
2023/01/30 10:37:28;;;;;;;6.18;3.05;;;;;;;13.64;39.02;94453.59;4997159;28;20033;-81
2023/01/30 10:40:04;;;;;;;4.57;2.20;;;;;;;14.09;36.92;94455.09;4981333;28;20454;-81
2023/01/30 10:42:47;;;;;;;53.65;21.13;;;;;;;14.26;38.00;94444.00;4998530;28;20065;-81
2023/01/30 10:45:19;;;;;;;659.67;253.88;;;;;;;14.73;39.01;94438.75;4980692;28;20030;-81
2023/01/30 10:48:00;;;;;;;228.75;67.90;;;;;;;15.17;37.33;94435.84;4997053;28;20030;-81
2023/01/30 10:50:53;;;;;;;1610.63;549.00;;;;;;;15.50;36.48;94425.16;4997308;28;20033;-81
2023/01/30 10:53:31;;;;;;;1616.05;564.67;;;;;;;16.02;36.15;94426.69;4984426;28;20046;-81
2023/01/30 10:56:07;;;;;;;365.42;106.53;;;;;;;15.91;35.21;94418.97;4998070;28;20026;-81
2023/01/30 10:58:59;;;;;;;739.65;257.08;;;;;;;15.56;35.47;94418.69;4980913;28;20474;-81
2023/01/30 11:01:31;;;;;;;47.97;16.90;;;;;;;15.83;35.10;94417.03;4953986;28;20355;-81
2023/01/30 11:04:10;;;;;;;122.70;40.22;;;;;;;15.96;34.62;94413.59;4969582;28;20045;-81
2023/01/30 11:06:36;;;;;;;27.95;10.95;;;;;;;15.75;34.83;94415.09;4977298;28;20033;-81
2023/01/30 11:09:02;;;;;;;64.00;37.00;;;;;;;15.65;34.82;94416.91;4977313;28;20317;-81
2023/01/30 11:11:32;;;;;;;10.57;6.75;;;;;;;15.80;34.74;94413.13;4977489;28;20049;-81
2023/01/30 11:14:06;;;;;;;13.45;7.88;;;;;;;15.48;34.05;94422.00;4977123;28;20436;-80
2023/01/30 11:16:33;;;;;;;16.52;10.15;;;;;;;15.84;34.47;94423.88;4977110;28;20023;-81
2023/01/30 11:19:03;;;;;;;14.77;8.20;;;;;;;16.19;33.79;94424.16;4961312;28;20058;-81
2023/01/30 11:21:30;;;;;;;17.67;9.52;;;;;;;16.04;35.20;94416.59;4977197;28;20431;-81
2023/01/30 11:23:55;;;;;;;9.80;5.95;;;;;;;15.89;34.96;94423.78;4977039;28;20376;-81
2023/01/30 11:26:35;;;;;;;4.65;2.00;;;;;;;15.08;35.79;94414.66;4976398;28;20033;-81
2023/01/30 11:29:27;;;;;;;5.45;1.90;;;;;;;13.95;35.41;94413.66;4961144;28;20030;-81
2023/01/30 11:31:53;;;;;;;10.00;6.72;;;;;;;14.32;36.92;94399.91;4976967;28;20074;-81
2023/01/30 11:34:21;;;;;;;24.85;15.15;;;;;;;14.50;37.02;94377.97;4960976;28;20027;-81
2023/01/30 11:36:48;;;;;;;9.18;5.07;;;;;;;14.08;38.13;94383.16;4976833;28;20030;-81
2023/01/30 11:39:17;;;;;;;19.35;12.07;;;;;;;13.92;38.65;94387.09;4976907;28;20030;-81
2023/01/30 11:41:55;;;;;;;19.42;11.85;;;;;;;13.84;38.90;94409.63;4977024;28;20058;-81
2023/01/30 11:44:35;;;;;;;15.52;9.80;;;;;;;13.78;39.74;94402.88;4976914;28;20075;-80
2023/01/30 11:47:22;;;;;;;7.90;3.95;;;;;;;12.93;39.55;94390.25;4976709;28;20022;-81
2023/01/30 11:49:51;;;;;;;8.27;3.88;;;;;;;12.79;39.75;94375.16;4977473;28;20046;-81